createdAt,value
2023-03-27T00:01:13.290Z,-7.80
2023-03-27T00:03:40.423Z,-7.78
2023-03-27T00:06:16.832Z,-7.76
2023-03-27T00:08:46.460Z,-7.75
2023-03-27T00:11:14.627Z,-7.74
2023-03-27T00:13:49.025Z,-7.72
2023-03-27T00:16:22.417Z,-7.77
2023-03-27T00:18:49.380Z,-7.77
2023-03-27T00:21:16.235Z,-7.78
2023-03-27T00:23:42.979Z,-7.77
2023-03-27T00:26:10.663Z,-7.89
2023-03-27T00:28:37.359Z,-7.99
2023-03-27T00:31:04.221Z,-7.99
2023-03-27T00:33:32.309Z,-8.01
2023-03-27T00:35:58.983Z,-8.03
2023-03-27T00:38:25.772Z,-7.99
2023-03-27T00:40:55.267Z,-8.00
2023-03-27T00:43:34.314Z,-8.03
2023-03-27T00:46:03.965Z,-8.05
2023-03-27T00:48:35.453Z,-8.10
2023-03-27T00:51:04.120Z,-8.07
2023-03-27T00:53:32.310Z,-8.10
2023-03-27T00:56:02.965Z,-8.10
2023-03-27T00:58:31.669Z,-8.13
2023-03-27T01:00:58.952Z,-8.17
2023-03-27T01:03:30.344Z,-8.15
2023-03-27T01:06:00.512Z,-8.17
2023-03-27T01:08:29.900Z,-8.17
2023-03-27T01:11:11.654Z,-8.16
2023-03-27T01:14:19.321Z,-8.18
2023-03-27T01:17:12.234Z,-8.13
2023-03-27T01:20:01.023Z,-8.18
2023-03-27T01:23:02.380Z,-8.22
2023-03-27T01:26:36.241Z,-8.22
2023-03-27T01:29:10.520Z,-8.23
2023-03-27T01:32:02.041Z,-8.21
2023-03-27T01:34:34.528Z,-8.22
2023-03-27T01:37:06.473Z,-8.20
2023-03-27T01:39:39.377Z,-8.24
2023-03-27T01:42:29.255Z,-8.24
2023-03-27T01:45:17.119Z,-8.19
2023-03-27T01:48:11.559Z,-8.32
2023-03-27T01:50:49.754Z,-8.43
2023-03-27T01:53:24.188Z,-8.43
2023-03-27T01:55:58.515Z,-8.48
2023-03-27T01:58:33.236Z,-8.53
2023-03-27T02:01:01.909Z,-8.52
2023-03-27T02:03:35.998Z,-8.57
2023-03-27T02:06:13.519Z,-8.52
2023-03-27T02:08:50.581Z,-8.53
2023-03-27T02:11:17.423Z,-8.49
2023-03-27T02:13:54.560Z,-8.51
2023-03-27T02:16:33.682Z,-8.50
2023-03-27T02:19:20.894Z,-8.54
2023-03-27T02:21:48.219Z,-8.56
2023-03-27T02:24:18.422Z,-8.66
2023-03-27T02:26:46.915Z,-8.58
2023-03-27T02:29:31.845Z,-8.54
2023-03-27T02:32:37.145Z,-8.66
2023-03-27T02:35:29.584Z,-8.69
2023-03-27T02:38:13.551Z,-8.74
2023-03-27T02:40:51.942Z,-8.71
2023-03-27T02:43:48.573Z,-8.63
2023-03-27T02:46:28.115Z,-8.68
2023-03-27T02:48:58.584Z,-8.75
2023-03-27T02:51:37.860Z,-8.79
2023-03-27T02:54:24.170Z,-8.76
2023-03-27T02:57:00.217Z,-8.75
2023-03-27T02:59:35.915Z,-8.75
2023-03-27T03:02:10.556Z,-8.77
2023-03-27T03:04:43.256Z,-8.86
2023-03-27T03:07:11.489Z,-8.87
2023-03-27T03:09:40.554Z,-8.87
2023-03-27T03:12:08.618Z,-8.80
2023-03-27T03:14:38.735Z,-8.87
2023-03-27T03:17:05.507Z,-8.87
2023-03-27T03:19:32.495Z,-8.88
2023-03-27T03:22:00.311Z,-8.90
2023-03-27T03:24:28.347Z,-8.89
2023-03-27T03:26:55.227Z,-8.94
2023-03-27T03:29:21.883Z,-8.95
2023-03-27T03:31:49.711Z,-9.00
2023-03-27T03:34:18.711Z,-9.02
2023-03-27T03:36:49.826Z,-9.00
2023-03-27T03:39:17.532Z,-8.92
2023-03-27T03:41:44.192Z,-8.97
2023-03-27T03:44:11.924Z,-8.99
2023-03-27T03:46:40.263Z,-8.95
2023-03-27T03:49:07.520Z,-8.93
2023-03-27T03:51:37.209Z,-8.93
2023-03-27T03:54:06.117Z,-8.87
2023-03-27T03:56:34.398Z,-8.90
2023-03-27T03:59:01.623Z,-8.88
2023-03-27T04:01:28.901Z,-8.87
2023-03-27T04:03:55.743Z,-8.87
2023-03-27T04:06:25.353Z,-8.89
2023-03-27T04:08:54.412Z,-8.89
2023-03-27T04:11:21.375Z,-8.90
2023-03-27T04:13:48.083Z,-8.85
2023-03-27T04:16:15.754Z,-8.84
2023-03-27T04:18:42.767Z,-8.79
2023-03-27T04:21:15.721Z,-8.75
2023-03-27T04:23:42.834Z,-8.79
2023-03-27T04:26:13.590Z,-8.80
2023-03-27T04:28:41.453Z,-8.80
2023-03-27T04:31:11.859Z,-8.81
2023-03-27T04:33:41.230Z,-8.79
2023-03-27T04:36:09.026Z,-8.81
2023-03-27T04:38:42.043Z,-8.92
2023-03-27T04:41:09.050Z,-8.94
2023-03-27T04:43:41.784Z,-8.93
2023-03-27T04:46:10.094Z,-8.95
2023-03-27T04:48:38.884Z,-8.97
2023-03-27T04:51:08.282Z,-9.06
2023-03-27T04:53:37.863Z,-9.08
2023-03-27T04:56:06.483Z,-9.06
2023-03-27T04:58:36.731Z,-9.10
2023-03-27T05:01:05.676Z,-9.11
2023-03-27T05:03:34.819Z,-9.06
2023-03-27T05:06:04.035Z,-9.04
2023-03-27T05:08:31.126Z,-9.03
2023-03-27T05:10:58.129Z,-9.02
2023-03-27T05:13:26.189Z,-9.04
2023-03-27T05:15:52.939Z,-9.01
2023-03-27T05:18:21.005Z,-8.97
2023-03-27T05:20:50.009Z,-9.01
2023-03-27T05:23:16.850Z,-8.99
2023-03-27T05:25:59.859Z,-8.94
2023-03-27T05:28:33.402Z,-8.97
2023-03-27T05:31:02.520Z,-8.97
2023-03-27T05:33:29.241Z,-9.01
2023-03-27T05:35:58.513Z,-9.01
2023-03-27T05:38:26.351Z,-8.85
2023-03-27T05:40:52.981Z,-8.68
2023-03-27T05:43:19.568Z,-8.61
2023-03-27T05:45:46.328Z,-8.53
2023-03-27T05:48:14.102Z,-8.49
2023-03-27T05:50:41.733Z,-8.45
2023-03-27T05:53:13.844Z,-8.42
2023-03-27T05:55:40.466Z,-8.34
2023-03-27T05:58:11.196Z,-8.33
2023-03-27T06:00:38.903Z,-8.30
2023-03-27T06:03:07.022Z,-8.30
2023-03-27T06:05:34.031Z,-8.27
2023-03-27T06:08:00.844Z,-8.22
2023-03-27T06:10:30.501Z,-8.16
2023-03-27T06:13:04.457Z,-8.11
2023-03-27T06:15:31.714Z,-8.06
2023-03-27T06:17:58.514Z,-8.03
2023-03-27T06:20:26.257Z,-7.99
2023-03-27T06:22:59.562Z,-7.94
2023-03-27T06:25:31.318Z,-7.95
2023-03-27T06:27:59.374Z,-7.93
2023-03-27T06:30:29.061Z,-7.89
2023-03-27T06:32:59.869Z,-7.87
2023-03-27T06:35:29.555Z,-7.83
2023-03-27T06:37:57.562Z,-7.82
2023-03-27T06:40:29.079Z,-7.83
2023-03-27T06:42:58.924Z,-7.81
2023-03-27T06:45:34.035Z,-7.80
2023-03-27T06:48:17.809Z,-7.75
2023-03-27T06:50:48.894Z,-7.71
2023-03-27T06:55:49.080Z,-7.61
2023-03-27T06:58:19.983Z,-7.53
2023-03-27T07:00:48.880Z,-7.49
2023-03-27T07:03:16.271Z,-7.44
2023-03-27T07:05:42.953Z,-7.36
2023-03-27T07:08:21.770Z,-7.28
2023-03-27T07:10:59.940Z,-7.20
2023-03-27T07:13:37.017Z,-7.09
2023-03-27T07:16:04.544Z,-7.05
2023-03-27T07:18:31.467Z,-6.94
2023-03-27T07:20:58.404Z,-6.85
2023-03-27T07:23:25.426Z,-6.81
2023-03-27T07:25:53.461Z,-6.74
2023-03-27T07:28:20.975Z,-6.68
2023-03-27T07:30:47.705Z,-6.62
2023-03-27T07:33:15.062Z,-6.56
2023-03-27T07:35:46.588Z,-6.52
2023-03-27T07:38:14.578Z,-6.46
2023-03-27T07:40:45.236Z,-6.35
2023-03-27T07:43:12.362Z,-6.28
2023-03-27T07:45:39.057Z,-6.25
2023-03-27T07:48:16.842Z,-6.19
2023-03-27T07:50:45.264Z,-6.14
2023-03-27T07:53:32.891Z,-6.03
2023-03-27T07:56:01.228Z,-5.97
2023-03-27T07:58:29.528Z,-5.85
2023-03-27T08:01:02.683Z,-5.79
2023-03-27T08:03:30.945Z,-5.74
2023-03-27T08:05:59.873Z,-5.58
2023-03-27T08:08:27.380Z,-5.47
2023-03-27T08:10:55.645Z,-5.38
2023-03-27T08:13:22.625Z,-5.32
2023-03-27T08:15:49.708Z,-5.26
2023-03-27T08:18:16.442Z,-5.25
2023-03-27T08:20:43.090Z,-5.23
2023-03-27T08:23:11.182Z,-5.11
2023-03-27T08:25:37.790Z,-4.97
2023-03-27T08:28:04.462Z,-4.88
2023-03-27T08:30:31.215Z,-4.81
2023-03-27T08:33:00.225Z,-4.75
2023-03-27T08:35:27.093Z,-4.64
2023-03-27T08:37:55.314Z,-4.59
2023-03-27T08:40:29.368Z,-4.55
2023-03-27T08:43:01.200Z,-4.54
2023-03-27T08:45:33.419Z,-4.57
2023-03-27T08:48:09.136Z,-4.52
2023-03-27T08:50:46.810Z,-4.43
2023-03-27T08:53:29.635Z,-4.32
2023-03-27T08:55:58.557Z,-4.21
2023-03-27T08:58:25.448Z,-4.12
2023-03-27T09:01:32.162Z,-4.00
2023-03-27T09:04:11.466Z,-3.96
2023-03-27T09:06:58.015Z,-3.93
2023-03-27T09:09:34.664Z,-3.76
2023-03-27T09:12:30.144Z,-3.61
2023-03-27T09:15:09.578Z,-3.56
2023-03-27T09:18:00.493Z,-3.46
2023-03-27T09:20:40.851Z,-3.38
2023-03-27T09:23:31.913Z,-3.19
2023-03-27T09:26:03.413Z,-3.18
2023-03-27T09:28:52.017Z,-3.13
2023-03-27T09:31:40.686Z,-3.16
2023-03-27T09:34:12.002Z,-3.11
2023-03-27T09:36:38.853Z,-3.14
2023-03-27T09:39:08.221Z,-3.10
2023-03-27T09:41:41.614Z,-3.03
2023-03-27T09:44:26.657Z,-2.98
2023-03-27T09:47:24.355Z,-2.95
2023-03-27T09:49:58.460Z,-2.92
2023-03-27T09:52:40.107Z,-2.88
2023-03-27T09:55:30.657Z,-2.74
2023-03-27T09:58:22.994Z,-2.67
2023-03-27T10:01:09.627Z,-2.63
2023-03-27T10:03:49.181Z,-2.49
2023-03-27T10:06:27.978Z,-2.40
2023-03-27T10:08:56.771Z,-2.48
2023-03-27T10:11:28.867Z,-2.45
2023-03-27T10:13:58.281Z,-2.53
2023-03-27T10:16:26.268Z,-2.61
2023-03-27T10:18:55.990Z,-2.65
2023-03-27T10:21:33.911Z,-2.62
2023-03-27T10:24:06.548Z,-2.62
2023-03-27T10:26:38.414Z,-2.67
2023-03-27T10:29:23.280Z,-2.67
2023-03-27T10:31:53.065Z,-2.68
2023-03-27T10:34:38.745Z,-2.62
2023-03-27T10:37:34.193Z,-2.64
2023-03-27T10:40:02.963Z,-2.62
2023-03-27T10:42:32.452Z,-2.55
2023-03-27T10:44:59.908Z,-2.58
2023-03-27T10:47:31.561Z,-2.59
2023-03-27T10:50:27.887Z,-2.46
2023-03-27T10:53:17.659Z,-2.37
2023-03-27T10:55:55.803Z,-2.31
2023-03-27T10:58:30.778Z,-2.35
2023-03-27T11:01:04.898Z,-2.54
2023-03-27T11:03:45.317Z,-2.72
2023-03-27T11:06:16.893Z,-2.75
2023-03-27T11:09:01.995Z,-2.62
2023-03-27T11:11:45.051Z,-2.56
2023-03-27T11:14:23.625Z,-2.65
2023-03-27T11:16:57.077Z,-3.04
2023-03-27T11:20:07.092Z,-3.16
2023-03-27T11:22:44.666Z,-2.87
2023-03-27T11:25:48.173Z,-2.80
2023-03-27T11:28:47.571Z,-3.03
2023-03-27T11:31:32.608Z,-2.90
2023-03-27T11:34:08.208Z,-2.78
2023-03-27T11:36:56.337Z,-2.95
2023-03-27T11:39:46.852Z,-2.91
2023-03-27T11:42:21.473Z,-2.97
2023-03-27T11:44:50.196Z,-3.19
2023-03-27T11:47:44.453Z,-3.07
2023-03-27T11:50:22.730Z,-3.25
2023-03-27T11:53:02.351Z,-3.46
2023-03-27T11:55:39.438Z,-3.37
2023-03-27T11:58:33.330Z,-3.52
2023-03-27T12:01:27.068Z,-3.62
2023-03-27T12:04:13.288Z,-3.64
2023-03-27T12:06:42.914Z,-3.84
2023-03-27T12:09:22.841Z,-3.82
2023-03-27T12:12:14.705Z,-3.66
2023-03-27T12:14:56.647Z,-3.75
2023-03-27T12:17:42.023Z,-3.77
2023-03-27T12:20:20.695Z,-3.75
2023-03-27T12:22:49.993Z,-3.79
2023-03-27T12:25:42.113Z,-3.65
2023-03-27T12:28:45.452Z,-3.72
2023-03-27T12:31:19.277Z,-3.85
2023-03-27T12:34:08.754Z,-3.74
2023-03-27T12:36:41.333Z,-3.71
2023-03-27T12:39:26.383Z,-3.82
2023-03-27T12:41:54.316Z,-3.83
2023-03-27T12:44:30.151Z,-3.65
2023-03-27T12:47:08.460Z,-3.72
2023-03-27T12:49:47.987Z,-3.78
2023-03-27T12:52:15.793Z,-3.68
2023-03-27T12:55:06.090Z,-3.64
2023-03-27T12:57:46.163Z,-3.65
2023-03-27T13:00:21.520Z,-3.54
2023-03-27T13:03:06.756Z,-3.30
2023-03-27T13:05:59.422Z,-3.40
2023-03-27T13:08:45.483Z,-3.32
2023-03-27T13:11:36.771Z,-3.13
2023-03-27T13:14:13.103Z,-3.13
2023-03-27T13:17:01.198Z,-3.01
2023-03-27T13:19:37.711Z,-2.78
2023-03-27T13:22:42.261Z,-2.77
2023-03-27T13:25:31.735Z,-2.78
2023-03-27T13:28:31.991Z,-2.62
2023-03-27T13:31:02.706Z,-2.67
2023-03-27T13:33:29.308Z,-2.65
2023-03-27T13:35:59.215Z,-2.45
2023-03-27T13:38:44.776Z,-2.48
2023-03-27T13:41:45.187Z,-2.51
2023-03-27T13:44:30.325Z,-2.45
2023-03-27T13:47:19.882Z,-2.36
2023-03-27T13:50:31.542Z,-2.47
2023-03-27T13:53:18.120Z,-2.33
2023-03-27T13:55:54.244Z,-2.28
2023-03-27T13:58:55.804Z,-2.30
2023-03-27T14:01:22.707Z,-2.13
2023-03-27T14:04:07.581Z,-2.24
2023-03-27T14:07:08.343Z,-2.28
2023-03-27T14:09:55.974Z,-2.14
2023-03-27T14:12:52.034Z,-2.25
2023-03-27T14:16:01.765Z,-2.31
2023-03-27T14:18:31.385Z,-2.13
2023-03-27T14:21:03.815Z,-2.19
2023-03-27T14:23:45.879Z,-2.25
2023-03-27T14:26:25.792Z,-2.15
2023-03-27T14:28:55.604Z,-2.25
2023-03-27T14:31:23.916Z,-2.29
2023-03-27T14:34:03.833Z,-2.14
2023-03-27T14:36:34.037Z,-2.10
2023-03-27T14:39:03.853Z,-2.14
2023-03-27T14:41:32.625Z,-2.16
2023-03-27T14:44:04.561Z,-2.04
2023-03-27T14:46:31.422Z,-1.97
2023-03-27T14:49:00.161Z,-2.16
2023-03-27T14:51:37.063Z,-2.10
2023-03-27T14:54:08.348Z,-2.14
2023-03-27T14:56:47.429Z,-2.25
2023-03-27T14:59:20.739Z,-2.31
2023-03-27T15:01:50.224Z,-2.19
2023-03-27T15:04:17.331Z,-2.21
2023-03-27T15:06:44.015Z,-2.25
2023-03-27T15:09:19.157Z,-2.18
2023-03-27T15:12:05.540Z,-2.13
2023-03-27T15:14:32.510Z,-2.30
2023-03-27T15:17:08.301Z,-2.20
2023-03-27T15:19:48.865Z,-2.23
2023-03-27T15:22:30.100Z,-2.36
2023-03-27T15:25:03.018Z,-2.49
2023-03-27T15:27:43.778Z,-2.46
2023-03-27T15:30:36.074Z,-2.27
2023-03-27T15:33:05.664Z,-2.40
2023-03-27T15:35:38.804Z,-2.52
2023-03-27T15:38:07.614Z,-2.57
2023-03-27T15:40:42.983Z,-2.38
2023-03-27T15:43:23.432Z,-2.46
2023-03-27T15:46:10.547Z,-2.57
2023-03-27T15:48:40.764Z,-2.62
2023-03-27T15:51:14.624Z,-2.58
2023-03-27T15:53:47.787Z,-2.53
2023-03-27T15:59:37.367Z,-2.73
2023-03-27T16:02:20.800Z,-2.75
2023-03-27T16:04:54.382Z,-2.57
2023-03-27T16:07:46.482Z,-2.70
2023-03-27T16:10:15.622Z,-2.85
2023-03-27T16:12:56.510Z,-2.82
2023-03-27T16:15:29.484Z,-2.68
2023-03-27T16:18:00.180Z,-2.76
2023-03-27T16:20:28.041Z,-2.86
2023-03-27T16:22:54.630Z,-2.84
2023-03-27T16:25:21.344Z,-2.73
2023-03-27T16:27:51.276Z,-2.90
2023-03-27T16:30:30.623Z,-2.92
2023-03-27T16:32:57.368Z,-2.78
2023-03-27T16:35:24.202Z,-2.89
2023-03-27T16:37:52.049Z,-2.86
2023-03-27T16:40:20.304Z,-2.77
2023-03-27T16:42:48.184Z,-2.88
2023-03-27T16:45:14.939Z,-2.95
2023-03-27T16:47:41.828Z,-2.82
2023-03-27T16:50:18.262Z,-2.88
2023-03-27T16:52:44.870Z,-2.98
2023-03-27T16:55:13.884Z,-2.86
2023-03-27T16:57:41.806Z,-2.86
2023-03-27T17:00:11.591Z,-2.97
2023-03-27T17:02:38.365Z,-2.89
2023-03-27T17:05:09.239Z,-2.91
2023-03-27T17:07:37.256Z,-3.03
2023-03-27T17:10:05.296Z,-3.00
2023-03-27T17:12:32.386Z,-2.92
2023-03-27T17:14:59.113Z,-3.04
2023-03-27T17:17:27.540Z,-3.03
2023-03-27T17:19:55.869Z,-2.88
2023-03-27T17:22:23.939Z,-3.00
2023-03-27T17:24:56.536Z,-3.03
2023-03-27T17:27:25.870Z,-2.91
2023-03-27T17:29:52.579Z,-3.11
2023-03-27T17:32:19.440Z,-3.16
2023-03-27T17:34:47.450Z,-3.01
2023-03-27T17:37:14.078Z,-3.11
2023-03-27T17:39:41.112Z,-3.19
2023-03-27T17:42:07.712Z,-3.02
2023-03-27T17:44:34.341Z,-3.09
2023-03-27T17:47:01.137Z,-3.23
2023-03-27T17:49:29.735Z,-3.13
2023-03-27T17:51:56.444Z,-3.02
2023-03-27T17:54:23.130Z,-3.19
2023-03-27T17:56:50.245Z,-3.20
2023-03-27T17:59:16.933Z,-3.05
2023-03-27T18:01:45.840Z,-3.24
2023-03-27T18:04:13.365Z,-3.27
2023-03-27T18:06:40.076Z,-3.14
2023-03-27T18:09:07.449Z,-3.17
2023-03-27T18:11:35.539Z,-3.24
2023-03-27T18:14:02.141Z,-3.16
2023-03-27T18:16:29.977Z,-3.10
2023-03-27T18:18:57.612Z,-3.27
2023-03-27T18:21:25.590Z,-3.18
2023-03-27T18:23:53.996Z,-3.16
2023-03-27T18:26:20.701Z,-3.27
2023-03-27T18:28:47.366Z,-3.23
2023-03-27T18:31:15.343Z,-3.04
2023-03-27T18:33:42.057Z,-2.97
2023-03-27T18:36:10.673Z,-2.94
2023-03-27T18:38:41.270Z,-2.95
2023-03-27T18:41:09.199Z,-2.93
2023-03-27T18:43:36.550Z,-2.89
2023-03-27T18:46:05.781Z,-2.85
2023-03-27T18:48:33.082Z,-2.88
2023-03-27T18:51:02.629Z,-2.88
2023-03-27T18:53:32.895Z,-2.88
2023-03-27T18:56:00.122Z,-2.88
2023-03-27T18:58:28.335Z,-2.92
2023-03-27T19:00:56.901Z,-2.90
2023-03-27T19:03:25.775Z,-2.90
2023-03-27T19:05:54.504Z,-2.90
2023-03-27T19:08:22.098Z,-2.87
2023-03-27T19:10:48.951Z,-2.85
2023-03-27T19:13:16.124Z,-2.86
2023-03-27T19:15:42.985Z,-2.86
2023-03-27T19:18:09.823Z,-2.84
2023-03-27T19:20:36.734Z,-2.86
2023-03-27T19:23:03.980Z,-2.88
2023-03-27T19:25:33.980Z,-2.90
2023-03-27T19:28:01.409Z,-2.92
2023-03-27T19:30:28.420Z,-2.90
2023-03-27T19:32:55.833Z,-2.93
2023-03-27T19:35:22.535Z,-2.92
2023-03-27T19:37:49.222Z,-2.91
2023-03-27T19:40:16.037Z,-2.90
2023-03-27T19:42:42.775Z,-2.90
2023-03-27T19:45:10.168Z,-2.91
2023-03-27T19:47:37.257Z,-2.92
2023-03-27T19:50:08.163Z,-2.92
2023-03-27T19:52:35.241Z,-2.93
2023-03-27T19:55:02.392Z,-2.92
2023-03-27T19:57:29.434Z,-2.90
2023-03-27T19:59:56.127Z,-2.91
2023-03-27T20:02:22.809Z,-2.91
2023-03-27T20:04:49.456Z,-2.92
2023-03-27T20:07:16.172Z,-2.95
2023-03-27T20:09:43.447Z,-2.96
2023-03-27T20:12:11.432Z,-2.94
2023-03-27T20:14:38.076Z,-2.95
2023-03-27T20:17:07.952Z,-2.96
2023-03-27T20:19:46.204Z,-3.02
2023-03-27T20:22:12.922Z,-3.02
2023-03-27T20:24:40.276Z,-3.01
2023-03-27T20:27:08.212Z,-3.01
2023-03-27T20:29:34.830Z,-2.99
2023-03-27T20:32:01.473Z,-2.97
2023-03-27T20:34:28.087Z,-2.97
2023-03-27T20:36:55.610Z,-2.97
2023-03-27T20:39:23.342Z,-2.98
2023-03-27T20:41:51.321Z,-2.98
2023-03-27T20:44:17.973Z,-2.98
2023-03-27T20:46:51.601Z,-3.00
2023-03-27T20:49:40.731Z,-2.99
2023-03-27T20:52:17.484Z,-2.99
2023-03-27T20:54:44.558Z,-3.00
2023-03-27T20:57:12.977Z,-3.04
2023-03-27T20:59:39.723Z,-3.04
2023-03-27T21:02:06.826Z,-3.07
2023-03-27T21:04:33.659Z,-3.10
2023-03-27T21:07:00.321Z,-3.09
2023-03-27T21:09:29.292Z,-3.10
2023-03-27T21:11:56.349Z,-3.14
2023-03-27T21:14:23.554Z,-3.13
2023-03-27T21:16:50.373Z,-3.15
2023-03-27T21:19:17.202Z,-3.13
2023-03-27T21:21:45.280Z,-3.19
2023-03-27T21:24:11.991Z,-3.17
2023-03-27T21:26:38.878Z,-3.21
2023-03-27T21:29:06.014Z,-3.19
2023-03-27T21:31:32.696Z,-3.20
2023-03-27T21:33:59.404Z,-3.21
2023-03-27T21:36:28.823Z,-3.19
2023-03-27T21:38:56.669Z,-3.24
2023-03-27T21:41:23.790Z,-3.24
2023-03-27T21:43:50.716Z,-3.24
2023-03-27T21:46:17.454Z,-3.26
2023-03-27T21:48:49.300Z,-3.31
2023-03-27T21:51:16.132Z,-3.32
2023-03-27T21:53:44.046Z,-3.38
2023-03-27T21:56:11.069Z,-3.55
2023-03-27T21:58:38.205Z,-3.56
2023-03-27T22:01:05.528Z,-3.50
2023-03-27T22:03:32.157Z,-3.39
2023-03-27T22:06:12.498Z,-3.45
2023-03-27T22:08:41.669Z,-3.59
2023-03-27T22:11:10.269Z,-3.49
2023-03-27T22:13:39.397Z,-3.55
2023-03-27T22:16:12.078Z,-3.69
2023-03-27T22:18:39.065Z,-3.54
2023-03-27T22:21:34.933Z,-3.69
2023-03-27T22:24:01.759Z,-3.69
2023-03-27T22:26:37.217Z,-3.59
2023-03-27T22:29:05.463Z,-3.74
2023-03-27T22:31:32.108Z,-3.69
2023-03-27T22:33:58.843Z,-3.56
2023-03-27T22:36:25.768Z,-3.71
2023-03-27T22:38:52.488Z,-3.69
2023-03-27T22:41:20.381Z,-3.56
2023-03-27T22:43:49.861Z,-3.76
2023-03-27T22:46:23.452Z,-3.74
2023-03-27T22:48:57.793Z,-3.63
2023-03-27T22:51:26.793Z,-3.82
2023-03-27T22:53:54.617Z,-3.82
2023-03-27T22:56:21.785Z,-3.69
2023-03-27T22:58:48.686Z,-3.78
2023-03-27T23:01:15.815Z,-3.85
2023-03-27T23:03:42.598Z,-3.70
2023-03-27T23:06:17.022Z,-3.89
2023-03-27T23:08:43.454Z,-3.96
2023-03-27T23:11:12.881Z,-3.84
2023-03-27T23:13:41.549Z,-3.91
2023-03-27T23:16:09.454Z,-3.92
2023-03-27T23:18:36.460Z,-3.82
2023-03-27T23:21:11.699Z,-3.92
2023-03-27T23:23:40.413Z,-4.03
2023-03-27T23:26:09.710Z,-3.92
2023-03-27T23:28:38.859Z,-4.01
2023-03-27T23:31:08.227Z,-4.09
2023-03-27T23:33:40.920Z,-4.00
2023-03-27T23:36:16.366Z,-4.01
2023-03-27T23:38:44.532Z,-4.12
2023-03-27T23:41:12.917Z,-4.06
2023-03-27T23:43:39.597Z,-3.99
2023-03-27T23:46:10.402Z,-4.09
2023-03-27T23:48:42.252Z,-4.14
2023-03-27T23:51:09.804Z,-4.00
2023-03-27T23:53:37.160Z,-4.11
2023-03-27T23:56:04.179Z,-4.19
2023-03-27T23:58:33.625Z,-4.04
